Time;durP1;ratioP1;P1;durP2;ratioP2;P2;SDS_P1;SDS_P2;PMS_P1;PMS_P2;Temp;Humidity;BMP_temperature;BMP_pressure;BME280_temperature;BME280_humidity;BME280_pressure;Samples;Min_cycle;Max_cycle;Signal;HPM_P1;HPM_P2
2022/11/20 00:01:27;;;;;;;0.10;0.10;;;-1.00;99.90;;;;;;5093435;28;20293;-73
2022/11/20 00:03:55;;;;;;;0.20;0.20;;;-0.70;99.90;;;;;;5095121;28;20217;-72
2022/11/20 00:06:23;;;;;;;0.20;0.20;;;-0.70;99.90;;;;;;5097012;28;20205;-72
2022/11/20 00:08:52;;;;;;;0.20;0.20;;;-0.70;99.90;;;;;;5087198;28;20205;-72
2022/11/20 00:11:21;;;;;;;0.10;0.10;;;-0.70;99.90;;;;;;5097462;28;20193;-72
2022/11/20 00:13:51;;;;;;;0.10;0.10;;;-1.00;99.90;;;;;;5099028;28;20209;-72
2022/11/20 00:16:20;;;;;;;0.20;0.20;;;-0.80;99.90;;;;;;5096024;28;20201;-72
2022/11/20 00:18:49;;;;;;;0.10;0.10;;;-0.80;99.90;;;;;;5086983;28;20221;-72
2022/11/20 00:21:18;;;;;;;0.10;0.10;;;-0.80;99.90;;;;;;5096892;28;20202;-72
2022/11/20 00:23:46;;;;;;;0.20;0.20;;;-1.10;99.90;;;;;;5096684;28;20245;-71
2022/11/20 00:26:15;;;;;;;0.13;0.13;;;-0.90;99.90;;;;;;5096426;28;20329;-72
2022/11/20 00:28:44;;;;;;;0.10;0.10;;;-1.00;99.90;;;;;;5095472;28;20213;-72
2022/11/20 00:31:13;;;;;;;0.20;0.20;;;-1.00;99.90;;;;;;5097062;28;20305;-72
2022/11/20 00:33:41;;;;;;;0.20;0.20;;;-1.40;99.90;;;;;;5095620;28;20213;-72
2022/11/20 00:36:11;;;;;;;0.20;0.20;;;-1.20;99.90;;;;;;5106010;27;20205;-72
2022/11/20 00:38:38;;;;;;;0.20;0.20;;;-1.00;99.90;;;;;;5093268;28;20297;-72
2022/11/20 00:41:07;;;;;;;0.10;0.10;;;-1.00;99.90;;;;;;5096513;28;20207;-72
2022/11/20 00:43:35;;;;;;;0.20;0.20;;;-1.10;99.90;;;;;;5097195;28;20224;-72
2022/11/20 00:46:03;;;;;;;0.10;0.10;;;-1.00;99.90;;;;;;5086772;28;20197;-72
2022/11/20 00:48:31;;;;;;;0.20;0.20;;;-1.20;99.90;;;;;;5091512;28;20218;-72
2022/11/20 00:50:58;;;;;;;0.10;0.10;;;-1.40;99.90;;;;;;5095024;28;20197;-72
2022/11/20 00:53:27;;;;;;;0.20;0.20;;;-1.20;99.90;;;;;;5095134;28;20229;-72
2022/11/20 00:55:56;;;;;;;0.10;0.10;;;-0.80;99.90;;;;;;5094846;28;20221;-72
2022/11/20 00:58:24;;;;;;;0.20;0.20;;;-1.20;99.90;;;;;;5095999;28;20199;-72
2022/11/20 01:00:52;;;;;;;0.10;0.10;;;-1.30;99.90;;;;;;5087827;28;20209;-72
2022/11/20 01:03:19;;;;;;;0.10;0.10;;;-0.90;99.90;;;;;;5093445;28;20334;-72
2022/11/20 01:05:47;;;;;;;0.20;0.20;;;-1.20;99.90;;;;;;5092878;28;20205;-72
2022/11/20 01:08:14;;;;;;;0.10;0.10;;;-1.10;99.90;;;;;;5090511;28;20205;-72
2022/11/20 01:10:43;;;;;;;0.10;0.10;;;-1.10;99.90;;;;;;5094874;28;20205;-72
2022/11/20 01:15:55;;;;;;;0.20;0.20;;;-1.30;99.90;;;;;;5085375;28;20217;-71
2022/11/20 01:18:22;;;;;;;0.10;0.10;;;-1.30;99.90;;;;;;5097789;28;20189;-71
2022/11/20 01:20:49;;;;;;;0.20;0.20;;;-1.20;99.90;;;;;;5088769;28;20231;-72
2022/11/20 01:23:16;;;;;;;0.10;0.10;;;-1.20;99.90;;;;;;5094054;28;20294;-72
2022/11/20 01:25:45;;;;;;;0.17;0.17;;;-1.20;99.90;;;;;;5093138;28;20197;-72
2022/11/20 01:28:12;;;;;;;0.10;0.10;;;-1.10;99.90;;;;;;5095873;28;20203;-71
2022/11/20 01:30:39;;;;;;;0.20;0.20;;;-0.90;99.90;;;;;;5093227;28;20203;-71
2022/11/20 01:33:07;;;;;;;0.13;0.13;;;-1.30;99.90;;;;;;5086446;28;20224;-71
2022/11/20 01:35:35;;;;;;;0.20;0.20;;;-1.00;99.90;;;;;;5087019;28;20212;-71
2022/11/20 01:38:08;;;;;;;0.10;0.10;;;-1.00;99.90;;;;;;5094872;28;20228;-71
2022/11/20 01:40:36;;;;;;;0.10;0.10;;;-1.30;99.90;;;;;;5093181;28;20231;-72
2022/11/20 01:43:22;;;;;;;0.20;0.20;;;-1.20;99.90;;;;;;5094907;28;20229;-71
2022/11/20 01:46:14;;;;;;;0.10;0.10;;;-1.20;99.90;;;;;;5093941;28;20204;-71
2022/11/20 01:48:50;;;;;;;0.10;0.10;;;-1.00;99.90;;;;;;5091062;28;20299;-72
2022/11/20 01:51:22;;;;;;;0.10;0.10;;;-1.10;99.90;;;;;;5086085;28;20203;-71
2022/11/20 01:53:51;;;;;;;0.20;0.20;;;-1.00;99.90;;;;;;5086425;28;20222;-72
2022/11/20 01:56:19;;;;;;;0.20;0.20;;;-0.90;99.90;;;;;;5095484;28;20204;-71
2022/11/20 01:58:52;;;;;;;0.10;0.10;;;-0.80;99.90;;;;;;5094578;28;20197;-71
2022/11/20 02:01:19;;;;;;;0.13;0.13;;;-0.90;99.90;;;;;;5094128;28;20208;-72
2022/11/20 02:03:47;;;;;;;0.20;0.20;;;-0.80;99.90;;;;;;5104462;28;20233;-72
2022/11/20 02:06:20;;;;;;;0.10;0.10;;;-0.80;99.90;;;;;;5093430;28;20225;-72
2022/11/20 02:08:47;;;;;;;0.10;0.10;;;-1.00;99.90;;;;;;5093370;28;20217;-72
2022/11/20 02:11:14;;;;;;;0.10;0.10;;;-0.80;99.90;;;;;;5095102;28;20223;-72
2022/11/20 02:13:43;;;;;;;0.10;0.10;;;-0.80;99.90;;;;;;5092763;28;20232;-72
2022/11/20 02:16:19;;;;;;;0.20;0.20;;;-0.70;99.90;;;;;;5092872;28;20200;-72
2022/11/20 02:18:47;;;;;;;0.10;0.10;;;-0.80;99.90;;;;;;5085092;28;20204;-72
2022/11/20 02:21:25;;;;;;;0.10;0.10;;;-0.90;99.90;;;;;;5095607;28;20194;-72
2022/11/20 02:24:00;;;;;;;0.10;0.10;;;-0.70;99.90;;;;;;5092165;28;20297;-72
2022/11/20 02:26:30;;;;;;;0.20;0.20;;;-0.70;99.90;;;;;;5094542;28;20204;-72
2022/11/20 02:29:00;;;;;;;0.10;0.10;;;-0.70;99.90;;;;;;5086730;28;20198;-72
2022/11/20 02:31:28;;;;;;;0.20;0.20;;;-0.70;99.90;;;;;;5094816;28;20252;-71
2022/11/20 02:33:56;;;;;;;0.10;0.10;;;-0.60;99.90;;;;;;5093597;28;20288;-71
2022/11/20 02:36:26;;;;;;;0.10;0.10;;;-0.60;99.90;;;;;;5089467;28;20197;-71
2022/11/20 02:38:55;;;;;;;0.10;0.10;;;-0.60;99.90;;;;;;5090469;28;20206;-71
2022/11/20 02:41:31;;;;;;;0.20;0.20;;;-0.50;99.90;;;;;;5093816;28;20288;-71
2022/11/20 02:43:58;;;;;;;0.10;0.10;;;-0.50;99.90;;;;;;5090238;28;20216;-71
2022/11/20 02:46:25;;;;;;;0.20;0.20;;;-0.50;99.90;;;;;;5097307;28;20231;-71
2022/11/20 02:48:52;;;;;;;0.15;0.15;;;-0.40;99.90;;;;;;5097068;28;20317;-71
2022/11/20 02:51:19;;;;;;;0.20;0.20;;;-0.50;99.90;;;;;;5100003;28;20255;-71
2022/11/20 02:53:47;;;;;;;0.10;0.10;;;-0.70;99.90;;;;;;5097904;28;20221;-71
2022/11/20 02:56:16;;;;;;;0.20;0.20;;;-0.60;99.90;;;;;;5099982;28;20198;-71
2022/11/20 02:58:44;;;;;;;0.15;0.15;;;-0.70;99.90;;;;;;5097243;28;20197;-71
2022/11/20 03:01:11;;;;;;;0.10;0.10;;;-0.60;99.90;;;;;;5094020;28;20221;-71
2022/11/20 03:03:38;;;;;;;0.20;0.20;;;-0.40;99.90;;;;;;5096971;28;20217;-71
2022/11/20 03:06:06;;;;;;;0.20;0.20;;;-0.50;99.90;;;;;;5110548;27;20256;-71
2022/11/20 03:08:33;;;;;;;0.10;0.10;;;-0.60;99.90;;;;;;5097327;28;20197;-71
2022/11/20 03:11:04;;;;;;;0.10;0.10;;;-0.60;99.90;;;;;;5095539;28;20216;-71
2022/11/20 03:13:34;;;;;;;0.20;0.20;;;-0.60;99.90;;;;;;5105220;27;20228;-71
2022/11/20 03:16:07;;;;;;;0.20;0.20;;;-0.50;99.90;;;;;;5088709;28;20201;-71
2022/11/20 03:18:34;;;;;;;0.10;0.10;;;-0.50;99.90;;;;;;5091165;28;20232;-72
2022/11/20 03:21:04;;;;;;;0.20;0.20;;;-0.70;99.90;;;;;;5096004;28;20204;-71
2022/11/20 03:23:32;;;;;;;0.17;0.17;;;-0.60;99.90;;;;;;5098683;28;20212;-71
2022/11/20 03:26:14;;;;;;;0.10;0.10;;;-0.60;99.90;;;;;;5097943;28;20254;-71
2022/11/20 03:28:43;;;;;;;0.20;0.20;;;-0.60;99.90;;;;;;5096201;28;20204;-71
2022/11/20 03:31:12;;;;;;;0.10;0.10;;;-0.70;99.90;;;;;;5095124;28;20197;-71
2022/11/20 03:33:40;;;;;;;0.10;0.10;;;-0.60;99.90;;;;;;5088598;28;20221;-71
2022/11/20 03:36:09;;;;;;;0.20;0.20;;;-0.70;99.90;;;;;;5094950;28;20197;-71
2022/11/20 03:38:36;;;;;;;0.20;0.20;;;-0.60;99.90;;;;;;5093824;28;20296;-71
2022/11/20 03:41:05;;;;;;;0.20;0.20;;;-0.70;99.90;;;;;;5097103;28;20189;-71
2022/11/20 03:43:33;;;;;;;0.15;0.15;;;-0.80;99.90;;;;;;5095610;28;20220;-71
2022/11/20 03:46:02;;;;;;;0.20;0.20;;;-0.90;99.90;;;;;;5096299;28;20208;-71
2022/11/20 03:48:30;;;;;;;0.20;0.20;;;-0.70;99.90;;;;;;5095402;28;20205;-71
2022/11/20 03:51:08;;;;;;;0.20;0.20;;;-0.90;99.90;;;;;;5095653;28;20254;-71
2022/11/20 03:53:36;;;;;;;0.20;0.20;;;-0.80;99.90;;;;;;5096185;28;20278;-71
2022/11/20 03:56:04;;;;;;;0.20;0.20;;;-0.90;99.90;;;;;;5097338;28;20208;-71
2022/11/20 03:58:31;;;;;;;0.20;0.20;;;-0.80;99.90;;;;;;5086277;28;20217;-71
2022/11/20 04:00:58;;;;;;;0.10;0.10;;;-1.00;99.90;;;;;;5090683;28;20219;-71
2022/11/20 04:03:26;;;;;;;0.20;0.20;;;-0.80;99.90;;;;;;5097355;28;20239;-71
2022/11/20 04:05:54;;;;;;;0.13;0.13;;;-1.10;99.90;;;;;;5090600;28;20208;-71
2022/11/20 04:08:21;;;;;;;0.10;0.10;;;-0.90;99.90;;;;;;5091595;28;20197;-71
2022/11/20 04:10:48;;;;;;;0.20;0.20;;;-0.90;99.90;;;;;;5096927;28;20193;-71
2022/11/20 04:13:15;;;;;;;0.20;0.20;;;-1.00;99.90;;;;;;5095877;28;20728;-71
2022/11/20 04:15:42;;;;;;;0.20;0.20;;;-1.30;99.90;;;;;;5092221;28;20205;-71
2022/11/20 04:18:09;;;;;;;0.15;0.15;;;-1.40;99.90;;;;;;5097128;28;20283;-71
2022/11/20 04:20:38;;;;;;;0.20;0.20;;;-1.10;99.90;;;;;;5093112;28;20270;-71
2022/11/20 04:23:05;;;;;;;0.20;0.20;;;-1.10;99.90;;;;;;5097151;28;20213;-71
2022/11/20 04:25:32;;;;;;;0.20;0.20;;;-1.50;99.90;;;;;;5094931;28;20196;-71
2022/11/20 04:27:59;;;;;;;0.10;0.10;;;-1.50;99.90;;;;;;5087097;28;20294;-71
2022/11/20 04:30:26;;;;;;;0.10;0.10;;;-1.20;99.90;;;;;;5104157;27;20197;-71
2022/11/20 04:32:53;;;;;;;0.20;0.20;;;-1.30;99.90;;;;;;5095146;28;20235;-71
2022/11/20 04:35:20;;;;;;;0.20;0.20;;;-1.20;99.90;;;;;;5094992;28;20198;-71
2022/11/20 04:37:52;;;;;;;0.20;0.20;;;-1.50;99.90;;;;;;5087526;28;20205;-71
2022/11/20 04:40:19;;;;;;;0.10;0.10;;;-1.10;99.90;;;;;;5094286;28;20297;-71
2022/11/20 04:42:46;;;;;;;0.10;0.10;;;-1.50;99.90;;;;;;5105466;27;20292;-71
2022/11/20 04:45:14;;;;;;;0.20;0.20;;;-1.50;99.90;;;;;;5090152;28;20209;-72
2022/11/20 04:47:42;;;;;;;0.20;0.20;;;-1.50;99.90;;;;;;5095110;28;20212;-71
2022/11/20 04:50:10;;;;;;;0.20;0.20;;;-1.40;99.90;;;;;;5091294;28;20697;-71
2022/11/20 04:52:37;;;;;;;0.10;0.10;;;-1.60;99.90;;;;;;5094968;28;20773;-71
2022/11/20 04:55:07;;;;;;;0.20;0.20;;;-1.40;99.90;;;;;;5096218;28;20254;-72
2022/11/20 04:57:35;;;;;;;0.10;0.10;;;-1.60;99.90;;;;;;5089193;28;20216;-72
2022/11/20 05:00:02;;;;;;;0.20;0.20;;;-1.60;99.90;;;;;;5093654;28;20197;-71
2022/11/20 05:02:32;;;;;;;0.20;0.20;;;-1.50;99.90;;;;;;5092632;28;20740;-71
2022/11/20 05:04:59;;;;;;;0.10;0.10;;;-1.60;99.90;;;;;;5094006;28;20197;-71
2022/11/20 05:07:26;;;;;;;0.20;0.20;;;-1.50;99.90;;;;;;5095943;28;20192;-71
2022/11/20 05:09:53;;;;;;;0.20;0.20;;;-1.50;99.90;;;;;;5093943;28;20213;-71
2022/11/20 05:12:22;;;;;;;0.20;0.20;;;-1.40;99.90;;;;;;5104706;27;20201;-71
2022/11/20 05:14:50;;;;;;;0.20;0.20;;;-1.20;99.90;;;;;;5087210;28;20240;-71
2022/11/20 05:17:17;;;;;;;0.10;0.10;;;-1.30;99.90;;;;;;5097404;28;20193;-71
2022/11/20 05:19:44;;;;;;;0.10;0.10;;;-1.20;99.90;;;;;;5092619;28;20204;-71
2022/11/20 05:22:11;;;;;;;0.10;0.10;;;-1.50;99.90;;;;;;5097671;28;20205;-71
2022/11/20 05:24:38;;;;;;;0.10;0.10;;;-1.40;99.90;;;;;;5095636;28;20291;-71
2022/11/20 05:27:05;;;;;;;0.10;0.10;;;-1.40;99.90;;;;;;5095259;28;20200;-71
2022/11/20 05:29:34;;;;;;;0.20;0.20;;;-1.20;99.90;;;;;;5086250;28;20205;-71
2022/11/20 05:32:01;;;;;;;0.10;0.10;;;-1.40;99.90;;;;;;5096106;28;20205;-71
2022/11/20 05:34:28;;;;;;;0.10;0.10;;;-1.40;99.90;;;;;;5105490;27;20225;-71
2022/11/20 05:36:55;;;;;;;0.20;0.20;;;-1.30;99.90;;;;;;5092132;28;20197;-71
2022/11/20 05:39:23;;;;;;;0.20;0.20;;;-1.10;99.90;;;;;;5087036;28;20201;-71
2022/11/20 05:42:29;;;;;;;0.20;0.20;;;-1.00;99.90;;;;;;5094100;28;20208;-72
2022/11/20 05:44:38;;;;;;;0.20;0.20;;;-1.10;99.90;;;;;;5095252;28;20201;-71
2022/11/20 05:47:06;;;;;;;0.20;0.20;;;-1.30;99.90;;;;;;5094664;28;20201;-72
2022/11/20 05:49:33;;;;;;;0.20;0.20;;;-1.10;99.90;;;;;;5094752;28;20236;-71
2022/11/20 05:52:00;;;;;;;0.20;0.20;;;-1.10;99.90;;;;;;5094198;28;20205;-71
2022/11/20 05:54:28;;;;;;;0.10;0.10;;;-1.30;99.90;;;;;;5094254;28;20232;-71
2022/11/20 05:56:55;;;;;;;0.20;0.20;;;-1.50;99.90;;;;;;5094678;28;20185;-71
2022/11/20 05:59:22;;;;;;;0.20;0.20;;;-1.40;99.90;;;;;;5096799;28;20197;-71
2022/11/20 06:01:50;;;;;;;0.10;0.10;;;-1.60;99.90;;;;;;5096093;28;20189;-71
2022/11/20 06:04:17;;;;;;;0.15;0.15;;;-1.40;99.90;;;;;;5093586;28;20221;-70
2022/11/20 06:06:44;;;;;;;0.10;0.10;;;-1.60;99.90;;;;;;5096919;28;20201;-71
2022/11/20 06:09:12;;;;;;;0.15;0.15;;;-1.40;99.90;;;;;;5089549;28;20280;-71
2022/11/20 06:11:39;;;;;;;0.20;0.20;;;-1.50;99.90;;;;;;5092115;28;20246;-71
2022/11/20 06:14:07;;;;;;;0.20;0.20;;;-1.60;99.90;;;;;;5104711;28;20231;-71
2022/11/20 06:16:34;;;;;;;0.20;0.20;;;-2.00;99.90;;;;;;5096872;28;20229;-71
2022/11/20 06:19:03;;;;;;;0.20;0.20;;;-1.70;99.90;;;;;;5098626;28;20211;-71
2022/11/20 06:21:30;;;;;;;0.10;0.10;;;-1.70;99.90;;;;;;5097898;28;20198;-71
2022/11/20 06:23:57;;;;;;;0.10;0.10;;;-2.10;99.90;;;;;;5099126;28;20274;-71
2022/11/20 06:26:26;;;;;;;0.20;0.20;;;-1.80;99.90;;;;;;5098797;28;20205;-71
2022/11/20 06:28:55;;;;;;;0.20;0.20;;;-1.90;99.90;;;;;;5094194;28;20220;-71
2022/11/20 06:31:25;;;;;;;0.15;0.15;;;-1.80;99.90;;;;;;5097178;28;20206;-71
2022/11/20 06:33:57;;;;;;;0.20;0.20;;;-2.00;99.90;;;;;;5107985;27;20225;-72
2022/11/20 06:36:36;;;;;;;0.20;0.20;;;-2.10;99.90;;;;;;5099912;28;20222;-71
2022/11/20 06:39:06;;;;;;;0.10;0.10;;;-1.90;99.90;;;;;;5100770;28;20287;-71
2022/11/20 06:41:36;;;;;;;0.20;0.20;;;-2.10;99.90;;;;;;5092741;28;20201;-70
2022/11/20 06:44:06;;;;;;;0.10;0.10;;;-1.90;99.90;;;;;;5109661;27;20603;-70
2022/11/20 06:46:41;;;;;;;0.20;0.20;;;-2.10;99.90;;;;;;5098479;28;20262;-70
2022/11/20 06:49:10;;;;;;;0.20;0.20;;;-1.90;99.90;;;;;;5097455;28;20204;-70
2022/11/20 06:51:43;;;;;;;0.20;0.20;;;-2.30;99.90;;;;;;5096202;28;20222;-71
2022/11/20 06:54:12;;;;;;;0.20;0.20;;;-2.50;99.90;;;;;;5109505;27;20770;-72
2022/11/20 06:56:41;;;;;;;0.10;0.10;;;-2.10;99.90;;;;;;5100520;27;20204;-71
2022/11/20 06:59:10;;;;;;;0.20;0.20;;;-2.00;99.90;;;;;;5099554;28;20198;-70
2022/11/20 07:01:46;;;;;;;0.10;0.10;;;-2.00;99.90;;;;;;5100147;28;20217;-70
2022/11/20 07:04:19;;;;;;;0.20;0.20;;;-2.10;99.90;;;;;;5109903;27;20217;-70
2022/11/20 07:06:48;;;;;;;0.20;0.20;;;-1.90;99.90;;;;;;5096779;28;20201;-71
2022/11/20 07:09:16;;;;;;;0.10;0.10;;;-2.30;99.90;;;;;;5097378;28;20201;-70
2022/11/20 07:11:43;;;;;;;0.20;0.20;;;-1.90;99.90;;;;;;5096309;28;20212;-71
2022/11/20 07:14:10;;;;;;;0.13;0.13;;;-2.10;99.90;;;;;;5095142;28;20222;-70
2022/11/20 07:16:38;;;;;;;0.10;0.10;;;-2.30;99.90;;;;;;5090762;28;20225;-70
2022/11/20 07:19:05;;;;;;;0.20;0.20;;;-2.00;99.90;;;;;;5096308;28;20281;-70
2022/11/20 07:21:32;;;;;;;0.20;0.20;;;-2.20;99.90;;;;;;5099080;28;20197;-70
2022/11/20 07:24:01;;;;;;;0.20;0.20;;;-1.90;99.90;;;;;;5095542;28;20324;-70
2022/11/20 07:26:28;;;;;;;0.20;0.20;;;-1.80;99.90;;;;;;5096979;28;20328;-70
2022/11/20 07:28:55;;;;;;;0.10;0.10;;;-2.00;99.90;;;;;;5090534;28;20194;-70
2022/11/20 07:31:23;;;;;;;0.20;0.20;;;-2.00;99.90;;;;;;5094134;28;20205;-71
2022/11/20 07:33:50;;;;;;;0.20;0.20;;;-1.50;99.90;;;;;;5094447;28;20209;-70
2022/11/20 07:36:17;;;;;;;0.10;0.10;;;-1.70;99.90;;;;;;5096357;28;20278;-70
2022/11/20 07:38:46;;;;;;;0.20;0.20;;;-1.70;99.90;;;;;;5097322;28;20209;-71
2022/11/20 07:41:16;;;;;;;0.10;0.10;;;-1.60;99.90;;;;;;5090560;28;20197;-70
2022/11/20 07:43:43;;;;;;;0.20;0.20;;;-1.20;99.90;;;;;;5088310;28;20222;-70
2022/11/20 07:46:10;;;;;;;0.10;0.10;;;-1.10;99.90;;;;;;5098000;28;20205;-70
2022/11/20 07:48:37;;;;;;;0.20;0.20;;;-0.90;99.90;;;;;;5108225;27;20213;-71
2022/11/20 07:51:04;;;;;;;0.20;0.20;;;-0.90;99.90;;;;;;5096175;28;20201;-70
2022/11/20 07:53:32;;;;;;;0.10;0.10;;;-0.90;99.90;;;;;;5096611;28;20660;-71
2022/11/20 07:56:01;;;;;;;0.20;0.20;;;-0.80;99.90;;;;;;5099064;28;20190;-70
2022/11/20 07:58:30;;;;;;;0.20;0.20;;;-0.90;99.90;;;;;;5095906;28;20201;-70
2022/11/20 08:00:57;;;;;;;0.20;0.20;;;-0.80;99.90;;;;;;5095519;28;20253;-71
2022/11/20 08:03:24;;;;;;;0.13;0.13;;;-0.90;99.90;;;;;;5096412;28;20213;-71
2022/11/20 08:05:52;;;;;;;0.20;0.20;;;-0.70;99.90;;;;;;5097265;28;20194;-71
2022/11/20 08:08:19;;;;;;;0.10;0.10;;;-0.80;99.90;;;;;;5097880;28;20212;-71
2022/11/20 08:10:46;;;;;;;0.10;0.10;;;-0.60;99.90;;;;;;5089763;28;20201;-71
2022/11/20 08:15:59;;;;;;;0.13;0.13;;;-0.60;99.90;;;;;;5092070;28;20194;-70
2022/11/20 08:18:26;;;;;;;0.10;0.10;;;-0.50;99.90;;;;;;5086558;28;20292;-71
2022/11/20 08:20:53;;;;;;;0.20;0.20;;;-0.70;99.90;;;;;;5106211;27;20313;-71
2022/11/20 08:23:21;;;;;;;0.10;0.10;;;-0.40;99.90;;;;;;5097434;28;20217;-70
2022/11/20 08:25:51;;;;;;;0.20;0.20;;;-0.40;99.90;;;;;;5094851;28;20233;-72
2022/11/20 08:28:18;;;;;;;0.10;0.10;;;-0.40;99.90;;;;;;5094731;28;20205;-70
2022/11/20 08:30:45;;;;;;;0.20;0.20;;;-0.50;99.90;;;;;;5095942;28;20193;-71
2022/11/20 08:33:14;;;;;;;0.10;0.10;;;-0.40;99.90;;;;;;5098578;28;20303;-70
2022/11/20 08:35:42;;;;;;;0.20;0.20;;;-0.60;99.90;;;;;;5097052;28;20229;-70
2022/11/20 08:38:10;;;;;;;0.20;0.20;;;-0.70;99.90;;;;;;5102468;27;20201;-70
2022/11/20 08:40:37;;;;;;;0.20;0.20;;;-0.50;99.90;;;;;;5097131;28;20205;-71
2022/11/20 08:43:04;;;;;;;0.10;0.10;;;-0.20;99.90;;;;;;5097256;28;20251;-70
2022/11/20 08:45:32;;;;;;;0.20;0.20;;;-0.50;99.90;;;;;;5096156;28;20193;-71
2022/11/20 08:48:02;;;;;;;0.20;0.20;;;-0.20;99.90;;;;;;5096501;28;20201;-70
2022/11/20 08:50:31;;;;;;;0.20;0.20;;;-0.20;99.90;;;;;;5105868;27;20306;-71
2022/11/20 08:53:03;;;;;;;0.20;0.20;;;-0.20;99.90;;;;;;5093806;28;20312;-70
2022/11/20 08:55:30;;;;;;;0.20;0.20;;;-0.50;99.90;;;;;;5085711;28;20255;-70
2022/11/20 08:57:57;;;;;;;0.20;0.20;;;-0.10;99.90;;;;;;5096547;28;20221;-70
2022/11/20 09:00:25;;;;;;;0.10;0.10;;;-0.20;99.90;;;;;;5096362;28;20201;-70
2022/11/20 09:02:52;;;;;;;0.20;0.20;;;-0.40;99.90;;;;;;5092912;28;20311;-70
2022/11/20 09:05:20;;;;;;;0.20;0.20;;;-0.20;99.90;;;;;;5095359;28;20253;-70
2022/11/20 09:07:48;;;;;;;0.13;0.13;;;0.00;99.90;;;;;;5097905;28;20204;-70
2022/11/20 09:10:16;;;;;;;0.10;0.10;;;-0.10;99.90;;;;;;5098048;28;20204;-70
2022/11/20 09:12:43;;;;;;;0.20;0.20;;;0.10;99.90;;;;;;5094698;28;20234;-70
2022/11/20 09:15:11;;;;;;;0.20;0.20;;;0.10;99.90;;;;;;5095564;28;20221;-70
2022/11/20 09:17:38;;;;;;;0.10;0.10;;;0.30;99.90;;;;;;5096247;28;20227;-70
2022/11/20 09:20:06;;;;;;;0.20;0.20;;;-0.20;99.90;;;;;;5095279;28;20193;-70
2022/11/20 09:22:33;;;;;;;0.20;0.20;;;0.30;99.90;;;;;;5095013;28;20232;-70
2022/11/20 09:25:02;;;;;;;0.10;0.10;;;0.30;99.90;;;;;;5086446;28;20194;-70
2022/11/20 09:27:29;;;;;;;0.10;0.10;;;0.00;99.90;;;;;;5095899;28;20258;-70
2022/11/20 09:29:57;;;;;;;0.10;0.10;;;0.00;99.90;;;;;;5093045;28;20202;-70
2022/11/20 09:32:24;;;;;;;0.20;0.20;;;0.40;99.90;;;;;;5090575;28;20217;-70
2022/11/20 09:34:51;;;;;;;0.20;0.20;;;0.40;99.90;;;;;;5094937;28;20213;-70
2022/11/20 09:37:18;;;;;;;0.10;0.10;;;0.30;99.90;;;;;;5093257;28;20301;-70
2022/11/20 09:39:45;;;;;;;0.20;0.20;;;0.40;99.90;;;;;;5093759;28;20209;-70
2022/11/20 09:42:29;;;;;;;0.20;0.20;;;0.20;99.90;;;;;;5090596;28;20197;-70
2022/11/20 09:45:15;;;;;;;0.20;0.20;;;0.10;99.90;;;;;;5089357;28;20197;-70
2022/11/20 09:48:00;;;;;;;0.20;0.20;;;0.20;99.90;;;;;;5087150;28;20682;-70
2022/11/20 09:50:34;;;;;;;0.10;0.10;;;0.50;99.90;;;;;;5087596;28;20206;-71
2022/11/20 09:53:12;;;;;;;0.10;0.10;;;0.40;99.90;;;;;;5096128;28;20221;-70
2022/11/20 09:55:40;;;;;;;0.10;0.10;;;0.60;99.90;;;;;;5093415;28;20315;-70
2022/11/20 09:58:16;;;;;;;0.10;0.10;;;0.40;99.90;;;;;;5094068;28;20187;-70
2022/11/20 10:00:45;;;;;;;0.20;0.20;;;0.70;99.90;;;;;;5094975;28;20211;-70
2022/11/20 10:03:17;;;;;;;0.20;0.20;;;0.60;99.90;;;;;;5095488;28;20244;-70
2022/11/20 10:05:48;;;;;;;0.10;0.10;;;0.80;99.90;;;;;;5094309;28;20263;-70
2022/11/20 10:08:20;;;;;;;0.10;0.10;;;0.40;99.90;;;;;;5094775;28;20276;-70
2022/11/20 10:10:50;;;;;;;0.10;0.10;;;0.70;99.90;;;;;;5095237;28;20698;-70
2022/11/20 10:13:30;;;;;;;0.15;0.15;;;1.00;99.90;;;;;;5095508;28;20569;-70
2022/11/20 10:16:07;;;;;;;0.10;0.10;;;1.00;99.90;;;;;;5090886;28;20231;-70
2022/11/20 10:18:52;;;;;;;0.17;0.17;;;0.80;99.90;;;;;;5093127;28;20234;-71
2022/11/20 10:21:28;;;;;;;0.10;0.10;;;0.90;99.90;;;;;;5106245;28;20277;-71
2022/11/20 10:24:34;;;;;;;0.10;0.10;;;1.10;99.90;;;;;;5085216;28;20717;-71
2022/11/20 10:27:15;;;;;;;0.10;0.10;;;1.20;99.90;;;;;;5102457;28;20193;-71
2022/11/20 10:29:54;;;;;;;0.10;0.10;;;1.30;99.90;;;;;;5096570;28;20208;-71
2022/11/20 10:32:33;;;;;;;0.20;0.20;;;1.30;99.90;;;;;;5088363;28;20200;-71
2022/11/20 10:35:08;;;;;;;0.20;0.20;;;1.40;99.90;;;;;;5092676;28;20212;-71
2022/11/20 10:37:38;;;;;;;0.10;0.10;;;1.50;99.90;;;;;;5089715;28;20212;-71
2022/11/20 10:40:21;;;;;;;0.10;0.10;;;1.50;99.90;;;;;;5094523;28;20198;-71
2022/11/20 10:42:54;;;;;;;0.17;0.17;;;1.60;99.90;;;;;;5091756;28;20736;-71
2022/11/20 10:45:37;;;;;;;0.10;0.10;;;1.70;99.90;;;;;;5094720;28;20225;-71
2022/11/20 10:48:22;;;;;;;0.10;0.10;;;1.60;99.90;;;;;;5087819;28;20429;-71
2022/11/20 10:51:07;;;;;;;0.10;0.10;;;1.40;99.90;;;;;;5095200;28;20197;-71
2022/11/20 10:53:46;;;;;;;0.10;0.10;;;1.80;99.90;;;;;;5093155;28;20245;-71
2022/11/20 10:56:21;;;;;;;0.20;0.20;;;1.50;99.90;;;;;;5095090;28;20211;-71
2022/11/20 10:59:01;;;;;;;0.20;0.20;;;1.70;99.90;;;;;;5095360;28;20201;-71
2022/11/20 11:01:31;;;;;;;0.10;0.10;;;1.80;99.90;;;;;;5092124;28;20300;-71
2022/11/20 11:03:59;;;;;;;0.10;0.10;;;1.90;99.90;;;;;;5097145;28;20209;-71
2022/11/20 11:06:33;;;;;;;0.10;0.10;;;2.00;99.90;;;;;;5097859;28;20208;-71
2022/11/20 11:09:05;;;;;;;0.20;0.20;;;2.10;99.90;;;;;;5098731;28;20284;-72
2022/11/20 11:11:34;;;;;;;0.10;0.10;;;2.10;99.90;;;;;;5098325;28;20189;-71
2022/11/20 11:14:08;;;;;;;0.10;0.10;;;2.00;99.90;;;;;;5096460;28;20250;-72
2022/11/20 11:16:41;;;;;;;0.20;0.20;;;2.20;99.90;;;;;;5110034;27;20228;-72
2022/11/20 11:19:14;;;;;;;0.10;0.10;;;2.10;99.90;;;;;;5104044;27;20583;-72
2022/11/20 11:21:47;;;;;;;0.20;0.20;;;2.10;99.90;;;;;;5096147;28;20623;-71
2022/11/20 11:24:21;;;;;;;0.10;0.10;;;1.90;99.90;;;;;;5097147;28;20213;-72
2022/11/20 11:26:55;;;;;;;0.20;0.20;;;2.30;99.90;;;;;;5099069;28;20289;-71
2022/11/20 11:29:23;;;;;;;0.10;0.10;;;2.50;99.90;;;;;;5096150;28;20205;-71
2022/11/20 11:31:51;;;;;;;0.17;0.17;;;2.70;99.90;;;;;;5106961;27;20198;-71
2022/11/20 11:34:19;;;;;;;0.10;0.10;;;2.80;99.90;;;;;;5108291;27;20244;-72
2022/11/20 11:36:57;;;;;;;0.10;0.10;;;2.80;99.90;;;;;;5094758;28;20221;-72
2022/11/20 11:39:28;;;;;;;0.10;0.10;;;2.90;99.90;;;;;;5093229;28;20267;-71
2022/11/20 11:41:55;;;;;;;0.20;0.20;;;2.70;99.90;;;;;;5089757;28;20201;-71
2022/11/20 11:47:24;;;;;;;0.20;0.20;;;2.70;99.90;;;;;;5088591;28;20602;-71
2022/11/20 11:50:02;;;;;;;0.10;0.10;;;3.00;99.90;;;;;;5092380;28;20299;-71
2022/11/20 11:52:32;;;;;;;0.10;0.10;;;3.00;99.90;;;;;;5095280;28;20216;-71
2022/11/20 11:55:04;;;;;;;0.10;0.10;;;2.70;99.90;;;;;;5097240;28;20703;-72
2022/11/20 11:57:42;;;;;;;0.10;0.10;;;2.90;99.90;;;;;;5095475;28;20627;-71
2022/11/20 12:00:12;;;;;;;0.10;0.10;;;3.00;99.90;;;;;;5096523;28;20608;-71
2022/11/20 12:02:53;;;;;;;0.17;0.17;;;2.70;99.90;;;;;;5096976;28;20667;-72
2022/11/20 12:05:26;;;;;;;0.10;0.10;;;3.10;99.90;;;;;;5088027;28;20622;-71
2022/11/20 12:07:59;;;;;;;0.10;0.10;;;2.80;99.90;;;;;;5094396;28;20651;-72
2022/11/20 12:10:40;;;;;;;0.20;0.20;;;3.10;99.90;;;;;;5097309;28;20626;-71
2022/11/20 12:13:18;;;;;;;0.13;0.13;;;3.00;99.90;;;;;;5097351;28;20639;-71
2022/11/20 12:15:49;;;;;;;0.10;0.10;;;3.00;99.90;;;;;;5095549;28;20651;-71
2022/11/20 12:18:20;;;;;;;0.20;0.20;;;2.90;99.90;;;;;;5097274;28;20208;-71
2022/11/20 12:21:03;;;;;;;0.10;0.10;;;3.00;99.90;;;;;;5096760;28;20624;-71
2022/11/20 12:23:35;;;;;;;0.17;0.17;;;;;;;;;;5094658;28;20639;-71
2022/11/20 12:26:04;;;;;;;0.10;0.10;;;;;;;;;;5092538;28;20808;-73
2022/11/20 12:28:38;;;;;;;0.10;0.10;;;;;;;;;;5095917;28;20648;-73
2022/11/20 12:31:23;;;;;;;0.10;0.10;;;;;;;;;;5096055;28;20602;-71
2022/11/20 12:34:01;;;;;;;0.10;0.10;;;;;;;;;;5095099;28;20639;-71
2022/11/20 12:36:34;;;;;;;0.10;0.10;;;;;;;;;;5093992;28;20661;-71
2022/11/20 12:39:15;;;;;;;0.10;0.10;;;;;;;;;;5096881;28;20645;-72
2022/11/20 12:47:33;;;;;;;0.10;0.10;;;;;;;;;;5087673;28;20602;-71
2022/11/20 12:50:08;;;;;;;0.10;0.10;;;;;;;;;;5084428;28;20646;-72
2022/11/20 12:52:43;;;;;;;0.10;0.10;;;;;;;;;;5094815;28;20790;-71
2022/11/20 12:55:31;;;;;;;0.10;0.10;;;;;;;;;;5094923;28;20658;-71
2022/11/20 12:58:01;;;;;;;0.10;0.10;;;;;;;;;;5088982;28;20765;-71
2022/11/20 13:00:28;;;;;;;0.10;0.10;;;;;;;;;;5103058;27;21036;-71
2022/11/20 13:03:07;;;;;;;0.13;0.13;;;;;;;;;;5095802;28;20754;-72
2022/11/20 13:05:39;;;;;;;0.10;0.10;;;;;;;;;;5094790;28;21261;-71
2022/11/20 13:08:10;;;;;;;0.10;0.10;;;;;;;;;;5096488;28;20645;-72
2022/11/20 13:10:40;;;;;;;0.10;0.10;;;;;;;;;;5094006;28;20614;-71
2022/11/20 13:13:13;;;;;;;0.10;0.10;;;;;;;;;;5095010;28;20659;-71
2022/11/20 13:15:46;;;;;;;0.10;0.10;;;;;;;;;;5089543;28;20764;-71
2022/11/20 13:18:14;;;;;;;0.10;0.10;;;;;;;;;;5091556;28;20630;-71
2022/11/20 13:20:47;;;;;;;0.10;0.10;;;;;;;;;;5090458;28;20628;-71
2022/11/20 13:23:24;;;;;;;0.10;0.10;;;;;;;;;;5095326;28;20650;-72
2022/11/20 13:25:52;;;;;;;0.10;0.10;;;;;;;;;;5095860;28;20606;-72
2022/11/20 13:28:30;;;;;;;0.10;0.10;;;;;;;;;;5088581;28;20705;-71